sensor_id;sensor_type;location;lat;lon;timestamp;P1;durP1;ratioP1;P2;durP2;ratioP2
77705;SDS011;66874;45.274;5.880;2023-03-05T00:00:35;61.65;;;25.23;;
77705;SDS011;66874;45.274;5.880;2023-03-05T00:03:00;60.35;;;25.75;;
77705;SDS011;66874;45.274;5.880;2023-03-05T00:05:25;66.22;;;27.27;;
77705;SDS011;66874;45.274;5.880;2023-03-05T00:07:51;70.72;;;27.88;;
77705;SDS011;66874;45.274;5.880;2023-03-05T00:10:16;57.00;;;26.05;;
77705;SDS011;66874;45.274;5.880;2023-03-05T00:12:42;63.20;;;26.27;;
77705;SDS011;66874;45.274;5.880;2023-03-05T00:15:09;56.57;;;26.00;;
77705;SDS011;66874;45.274;5.880;2023-03-05T00:17:36;62.33;;;26.75;;
77705;SDS011;66874;45.274;5.880;2023-03-05T00:22:29;66.07;;;26.50;;
77705;SDS011;66874;45.274;5.880;2023-03-05T00:24:54;62.90;;;25.00;;
77705;SDS011;66874;45.274;5.880;2023-03-05T00:27:19;62.47;;;25.52;;
77705;SDS011;66874;45.274;5.880;2023-03-05T00:29:45;62.45;;;27.15;;
77705;SDS011;66874;45.274;5.880;2023-03-05T03:01:32;55.45;;;25.38;;
77705;SDS011;66874;45.274;5.880;2023-03-05T03:03:58;59.10;;;27.05;;
77705;SDS011;66874;45.274;5.880;2023-03-05T03:06:23;61.97;;;26.30;;
77705;SDS011;66874;45.274;5.880;2023-03-05T03:08:49;67.40;;;27.83;;
77705;SDS011;66874;45.274;5.880;2023-03-05T03:11:14;66.63;;;25.75;;
77705;SDS011;66874;45.274;5.880;2023-03-05T03:13:40;65.50;;;25.92;;
77705;SDS011;66874;45.274;5.880;2023-03-05T03:16:15;65.13;;;26.48;;
77705;SDS011;66874;45.274;5.880;2023-03-05T03:18:40;61.03;;;25.52;;
77705;SDS011;66874;45.274;5.880;2023-03-05T03:21:06;66.53;;;26.35;;
77705;SDS011;66874;45.274;5.880;2023-03-05T03:23:32;63.53;;;26.42;;
77705;SDS011;66874;45.274;5.880;2023-03-05T03:25:57;64.90;;;27.48;;
77705;SDS011;66874;45.274;5.880;2023-03-05T03:28:23;67.65;;;26.92;;
77705;SDS011;66874;45.274;5.880;2023-03-05T06:32:00;59.20;;;24.90;;
77705;SDS011;66874;45.274;5.880;2023-03-05T06:34:25;64.03;;;28.65;;
77705;SDS011;66874;45.274;5.880;2023-03-05T06:36:51;61.10;;;26.77;;
77705;SDS011;66874;45.274;5.880;2023-03-05T06:39:16;64.93;;;25.80;;
77705;SDS011;66874;45.274;5.880;2023-03-05T06:41:42;59.30;;;26.23;;
77705;SDS011;66874;45.274;5.880;2023-03-05T06:44:08;58.53;;;26.27;;
77705;SDS011;66874;45.274;5.880;2023-03-05T06:46:34;70.40;;;26.33;;
77705;SDS011;66874;45.274;5.880;2023-03-05T06:49:01;66.47;;;26.17;;
77705;SDS011;66874;45.274;5.880;2023-03-05T06:53:58;60.15;;;26.02;;
77705;SDS011;66874;45.274;5.880;2023-03-05T06:56:25;62.53;;;25.92;;
77705;SDS011;66874;45.274;5.880;2023-03-05T06:58:51;61.78;;;26.40;;
77705;SDS011;66874;45.274;5.880;2023-03-05T07:01:17;61.92;;;26.80;;
77705;SDS011;66874;45.274;5.880;2023-03-05T07:03:44;64.25;;;26.88;;
77705;SDS011;66874;45.274;5.880;2023-03-05T07:06:12;65.57;;;25.75;;
77705;SDS011;66874;45.274;5.880;2023-03-05T07:08:39;66.97;;;28.45;;
77705;SDS011;66874;45.274;5.880;2023-03-05T07:11:18;59.03;;;24.23;;
77705;SDS011;66874;45.274;5.880;2023-03-05T07:13:44;62.40;;;24.63;;
77705;SDS011;66874;45.274;5.880;2023-03-05T07:16:14;68.30;;;27.40;;
77705;SDS011;66874;45.274;5.880;2023-03-05T07:18:47;60.42;;;27.02;;
77705;SDS011;66874;45.274;5.880;2023-03-05T07:21:16;62.95;;;27.42;;
77705;SDS011;66874;45.274;5.880;2023-03-05T07:23:44;63.35;;;27.90;;
77705;SDS011;66874;45.274;5.880;2023-03-05T07:26:09;77.80;;;29.15;;
77705;SDS011;66874;45.274;5.880;2023-03-05T07:28:35;67.28;;;27.63;;
77705;SDS011;66874;45.274;5.880;2023-03-05T07:31:02;61.20;;;26.17;;
77705;SDS011;66874;45.274;5.880;2023-03-05T07:33:29;60.50;;;25.70;;
77705;SDS011;66874;45.274;5.880;2023-03-05T07:35:54;69.60;;;28.27;;
77705;SDS011;66874;45.274;5.880;2023-03-05T07:38:20;68.95;;;32.90;;
77705;SDS011;66874;45.274;5.880;2023-03-05T07:40:46;91.72;;;42.38;;
77705;SDS011;66874;45.274;5.880;2023-03-05T07:43:13;64.00;;;27.73;;
77705;SDS011;66874;45.274;5.880;2023-03-05T07:45:39;65.95;;;30.50;;
77705;SDS011;66874;45.274;5.880;2023-03-05T07:48:05;65.60;;;31.13;;
77705;SDS011;66874;45.274;5.880;2023-03-05T07:50:32;62.85;;;27.90;;
77705;SDS011;66874;45.274;5.880;2023-03-05T07:52:57;64.43;;;30.92;;
77705;SDS011;66874;45.274;5.880;2023-03-05T07:55:24;80.35;;;38.88;;
77705;SDS011;66874;45.274;5.880;2023-03-05T07:57:49;68.35;;;26.50;;
77705;SDS011;66874;45.274;5.880;2023-03-05T08:00:15;79.03;;;38.50;;
77705;SDS011;66874;45.274;5.880;2023-03-05T08:02:41;70.10;;;30.40;;
77705;SDS011;66874;45.274;5.880;2023-03-05T08:05:06;70.13;;;29.90;;
77705;SDS011;66874;45.274;5.880;2023-03-05T08:07:32;56.88;;;26.63;;
77705;SDS011;66874;45.274;5.880;2023-03-05T08:09:57;61.30;;;25.48;;
77705;SDS011;66874;45.274;5.880;2023-03-05T08:12:23;72.78;;;31.75;;
77705;SDS011;66874;45.274;5.880;2023-03-05T08:14:48;70.28;;;31.33;;
77705;SDS011;66874;45.274;5.880;2023-03-05T08:17:15;59.93;;;26.97;;
77705;SDS011;66874;45.274;5.880;2023-03-05T08:19:41;70.68;;;29.30;;
77705;SDS011;66874;45.274;5.880;2023-03-05T08:22:06;60.63;;;25.73;;
77705;SDS011;66874;45.274;5.880;2023-03-05T08:24:31;63.92;;;31.77;;
77705;SDS011;66874;45.274;5.880;2023-03-05T08:26:57;72.70;;;38.83;;
77705;SDS011;66874;45.274;5.880;2023-03-05T08:29:23;58.53;;;29.10;;
77705;SDS011;66874;45.274;5.880;2023-03-05T08:31:49;67.03;;;29.90;;
77705;SDS011;66874;45.274;5.880;2023-03-05T08:34:17;64.80;;;29.02;;
77705;SDS011;66874;45.274;5.880;2023-03-05T08:36:44;68.85;;;28.80;;
77705;SDS011;66874;45.274;5.880;2023-03-05T08:39:09;67.03;;;25.95;;
77705;SDS011;66874;45.274;5.880;2023-03-05T08:41:35;63.60;;;26.27;;
77705;SDS011;66874;45.274;5.880;2023-03-05T08:44:00;63.03;;;25.92;;
77705;SDS011;66874;45.274;5.880;2023-03-05T08:46:26;65.28;;;30.63;;
77705;SDS011;66874;45.274;5.880;2023-03-05T08:48:51;72.00;;;31.30;;
77705;SDS011;66874;45.274;5.880;2023-03-05T08:51:20;55.08;;;26.23;;
77705;SDS011;66874;45.274;5.880;2023-03-05T08:53:49;58.95;;;23.90;;
77705;SDS011;66874;45.274;5.880;2023-03-05T08:56:16;61.60;;;26.55;;
77705;SDS011;66874;45.274;5.880;2023-03-05T08:58:42;63.53;;;25.33;;
77705;SDS011;66874;45.274;5.880;2023-03-05T09:01:08;62.28;;;23.83;;
77705;SDS011;66874;45.274;5.880;2023-03-05T09:03:34;57.20;;;24.73;;
77705;SDS011;66874;45.274;5.880;2023-03-05T09:06:01;73.35;;;37.30;;
77705;SDS011;66874;45.274;5.880;2023-03-05T09:08:28;55.85;;;24.70;;
77705;SDS011;66874;45.274;5.880;2023-03-05T09:10:54;68.43;;;30.83;;
77705;SDS011;66874;45.274;5.880;2023-03-05T09:13:19;70.65;;;31.15;;
77705;SDS011;66874;45.274;5.880;2023-03-05T09:15:46;66.70;;;29.13;;
77705;SDS011;66874;45.274;5.880;2023-03-05T09:18:18;68.68;;;27.35;;
77705;SDS011;66874;45.274;5.880;2023-03-05T09:20:43;80.03;;;32.60;;
77705;SDS011;66874;45.274;5.880;2023-03-05T09:23:09;75.28;;;28.50;;
77705;SDS011;66874;45.274;5.880;2023-03-05T09:25:34;56.53;;;26.48;;
77705;SDS011;66874;45.274;5.880;2023-03-05T09:27:59;109.05;;;41.53;;
77705;SDS011;66874;45.274;5.880;2023-03-05T09:30:25;62.40;;;26.27;;
77705;SDS011;66874;45.274;5.880;2023-03-05T09:32:50;72.57;;;30.33;;
77705;SDS011;66874;45.274;5.880;2023-03-05T09:35:15;136.00;;;51.90;;
77705;SDS011;66874;45.274;5.880;2023-03-05T09:37:41;158.13;;;59.53;;
77705;SDS011;66874;45.274;5.880;2023-03-05T09:40:06;68.28;;;29.80;;
77705;SDS011;66874;45.274;5.880;2023-03-05T09:45:37;54.40;;;24.73;;
77705;SDS011;66874;45.274;5.880;2023-03-05T09:50:49;56.53;;;25.33;;
77705;SDS011;66874;45.274;5.880;2023-03-05T09:56:10;60.53;;;24.88;;
77705;SDS011;66874;45.274;5.880;2023-03-05T09:58:41;57.47;;;26.65;;
77705;SDS011;66874;45.274;5.880;2023-03-05T10:01:12;61.58;;;27.20;;
77705;SDS011;66874;45.274;5.880;2023-03-05T10:09:03;56.58;;;25.67;;
77705;SDS011;66874;45.274;5.880;2023-03-05T10:14:10;50.80;;;23.13;;
77705;SDS011;66874;45.274;5.880;2023-03-05T10:16:51;57.05;;;25.55;;
77705;SDS011;66874;45.274;5.880;2023-03-05T10:41:14;48.33;;;23.85;;
77705;SDS011;66874;45.274;5.880;2023-03-05T10:46:36;51.60;;;25.35;;
77705;SDS011;66874;45.274;5.880;2023-03-05T10:49:20;52.67;;;25.83;;
77705;SDS011;66874;45.274;5.880;2023-03-05T10:51:51;51.80;;;25.90;;
77705;SDS011;66874;45.274;5.880;2023-03-05T10:54:27;51.80;;;25.65;;
77705;SDS011;66874;45.274;5.880;2023-03-05T10:59:29;53.42;;;27.20;;
77705;SDS011;66874;45.274;5.880;2023-03-05T11:02:02;47.80;;;24.20;;
77705;SDS011;66874;45.274;5.880;2023-03-05T11:04:29;60.40;;;25.85;;
77705;SDS011;66874;45.274;5.880;2023-03-05T11:07:00;47.88;;;25.27;;
77705;SDS011;66874;45.274;5.880;2023-03-05T11:09:31;57.08;;;26.67;;
77705;SDS011;66874;45.274;5.880;2023-03-05T11:12:11;52.22;;;26.38;;
77705;SDS011;66874;45.274;5.880;2023-03-05T11:14:46;46.47;;;25.20;;
77705;SDS011;66874;45.274;5.880;2023-03-05T11:17:28;51.58;;;25.70;;
77705;SDS011;66874;45.274;5.880;2023-03-05T11:19:55;49.42;;;25.08;;
77705;SDS011;66874;45.274;5.880;2023-03-05T11:22:22;54.67;;;28.77;;
77705;SDS011;66874;45.274;5.880;2023-03-05T11:25:03;45.85;;;26.13;;
77705;SDS011;66874;45.274;5.880;2023-03-05T11:27:36;46.95;;;26.35;;
77705;SDS011;66874;45.274;5.880;2023-03-05T11:30:03;51.15;;;25.30;;
77705;SDS011;66874;45.274;5.880;2023-03-05T11:32:46;48.90;;;24.23;;
77705;SDS011;66874;45.274;5.880;2023-03-05T11:35:31;47.10;;;25.63;;
77705;SDS011;66874;45.274;5.880;2023-03-05T11:37:59;54.90;;;26.73;;
77705;SDS011;66874;45.274;5.880;2023-03-05T11:40:26;49.50;;;26.45;;
77705;SDS011;66874;45.274;5.880;2023-03-05T11:42:55;85.18;;;46.10;;
77705;SDS011;66874;45.274;5.880;2023-03-05T11:45:23;51.83;;;26.30;;
77705;SDS011;66874;45.274;5.880;2023-03-05T11:47:51;47.20;;;25.08;;
77705;SDS011;66874;45.274;5.880;2023-03-05T11:50:21;54.75;;;26.08;;
77705;SDS011;66874;45.274;5.880;2023-03-05T12:00:29;47.35;;;25.63;;
77705;SDS011;66874;45.274;5.880;2023-03-05T12:02:57;49.05;;;26.60;;
77705;SDS011;66874;45.274;5.880;2023-03-05T12:05:27;48.45;;;25.65;;
77705;SDS011;66874;45.274;5.880;2023-03-05T12:10:22;50.08;;;26.63;;
77705;SDS011;66874;45.274;5.880;2023-03-05T12:21:22;49.55;;;27.38;;
77705;SDS011;66874;45.274;5.880;2023-03-05T12:27:06;40.80;;;25.38;;
77705;SDS011;66874;45.274;5.880;2023-03-05T12:29:28;46.25;;;25.65;;
77705;SDS011;66874;45.274;5.880;2023-03-05T12:31:56;42.67;;;23.85;;
77705;SDS011;66874;45.274;5.880;2023-03-05T12:37:13;42.00;;;25.10;;
77705;SDS011;66874;45.274;5.880;2023-03-05T12:47:38;48.17;;;24.73;;
77705;SDS011;66874;45.274;5.880;2023-03-05T12:50:09;45.83;;;26.60;;
77705;SDS011;66874;45.274;5.880;2023-03-05T12:52:50;41.65;;;26.08;;
77705;SDS011;66874;45.274;5.880;2023-03-05T12:55:26;45.00;;;25.67;;
77705;SDS011;66874;45.274;5.880;2023-03-05T12:57:58;41.90;;;25.65;;
77705;SDS011;66874;45.274;5.880;2023-03-05T13:00:29;40.03;;;26.38;;
77705;SDS011;66874;45.274;5.880;2023-03-05T13:03:17;46.97;;;30.90;;
77705;SDS011;66874;45.274;5.880;2023-03-05T13:05:49;40.85;;;27.00;;
77705;SDS011;66874;45.274;5.880;2023-03-05T13:08:19;50.83;;;31.98;;
77705;SDS011;66874;45.274;5.880;2023-03-05T13:11:00;52.00;;;34.53;;
77705;SDS011;66874;45.274;5.880;2023-03-05T13:13:29;40.40;;;26.52;;
77705;SDS011;66874;45.274;5.880;2023-03-05T13:15:58;44.00;;;27.85;;
77705;SDS011;66874;45.274;5.880;2023-03-05T13:18:26;42.80;;;31.75;;
77705;SDS011;66874;45.274;5.880;2023-03-05T13:20:59;46.60;;;31.77;;
77705;SDS011;66874;45.274;5.880;2023-03-05T13:23:27;42.65;;;28.80;;
77705;SDS011;66874;45.274;5.880;2023-03-05T13:28:27;42.60;;;29.35;;
77705;SDS011;66874;45.274;5.880;2023-03-05T13:30:57;43.30;;;28.58;;
77705;SDS011;66874;45.274;5.880;2023-03-05T13:33:32;43.00;;;28.13;;
77705;SDS011;66874;45.274;5.880;2023-03-05T13:36:00;41.72;;;27.50;;
77705;SDS011;66874;45.274;5.880;2023-03-05T13:49:23;44.47;;;29.08;;
77705;SDS011;66874;45.274;5.880;2023-03-05T13:54:23;51.20;;;29.58;;
77705;SDS011;66874;45.274;5.880;2023-03-05T13:56:59;45.80;;;28.40;;
77705;SDS011;66874;45.274;5.880;2023-03-05T13:59:31;44.72;;;29.33;;
77705;SDS011;66874;45.274;5.880;2023-03-05T14:02:15;46.58;;;28.45;;
77705;SDS011;66874;45.274;5.880;2023-03-05T14:04:42;43.13;;;25.73;;
77705;SDS011;66874;45.274;5.880;2023-03-05T14:09:46;43.60;;;28.15;;
77705;SDS011;66874;45.274;5.880;2023-03-05T14:12:35;41.38;;;26.88;;
77705;SDS011;66874;45.274;5.880;2023-03-05T14:15:01;41.90;;;28.20;;
77705;SDS011;66874;45.274;5.880;2023-03-05T14:22:37;46.60;;;27.63;;
77705;SDS011;66874;45.274;5.880;2023-03-05T14:27:55;47.25;;;28.83;;
77705;SDS011;66874;45.274;5.880;2023-03-05T14:30:22;44.42;;;27.95;;
77705;SDS011;66874;45.274;5.880;2023-03-05T14:35:16;43.15;;;26.92;;
77705;SDS011;66874;45.274;5.880;2023-03-05T14:37:44;46.63;;;27.77;;
77705;SDS011;66874;45.274;5.880;2023-03-05T14:47:59;46.42;;;28.42;;
77705;SDS011;66874;45.274;5.880;2023-03-05T14:50:27;50.95;;;29.80;;
77705;SDS011;66874;45.274;5.880;2023-03-05T14:52:58;47.88;;;28.88;;
77705;SDS011;66874;45.274;5.880;2023-03-05T14:55:27;46.30;;;29.15;;
77705;SDS011;66874;45.274;5.880;2023-03-05T14:57:59;47.63;;;28.15;;
77705;SDS011;66874;45.274;5.880;2023-03-05T15:00:28;47.25;;;27.27;;
77705;SDS011;66874;45.274;5.880;2023-03-05T15:02:54;45.97;;;28.10;;
77705;SDS011;66874;45.274;5.880;2023-03-05T15:05:20;44.25;;;26.95;;
77705;SDS011;66874;45.274;5.880;2023-03-05T15:07:45;50.38;;;27.80;;
77705;SDS011;66874;45.274;5.880;2023-03-05T15:10:13;47.15;;;28.77;;
77705;SDS011;66874;45.274;5.880;2023-03-05T15:12:41;43.97;;;26.73;;
77705;SDS011;66874;45.274;5.880;2023-03-05T15:15:07;46.85;;;27.35;;
77705;SDS011;66874;45.274;5.880;2023-03-05T15:17:34;44.87;;;28.87;;
77705;SDS011;66874;45.274;5.880;2023-03-05T15:20:02;48.17;;;29.70;;
77705;SDS011;66874;45.274;5.880;2023-03-05T15:22:34;46.25;;;28.67;;
77705;SDS011;66874;45.274;5.880;2023-03-05T15:25:00;52.75;;;29.45;;
77705;SDS011;66874;45.274;5.880;2023-03-05T15:27:26;45.88;;;27.70;;
77705;SDS011;66874;45.274;5.880;2023-03-05T15:29:52;50.30;;;27.33;;
77705;SDS011;66874;45.274;5.880;2023-03-05T15:32:17;50.20;;;26.90;;
77705;SDS011;66874;45.274;5.880;2023-03-05T15:34:42;47.70;;;28.02;;
77705;SDS011;66874;45.274;5.880;2023-03-05T15:37:08;45.63;;;26.67;;
77705;SDS011;66874;45.274;5.880;2023-03-05T15:39:33;48.88;;;27.10;;
77705;SDS011;66874;45.274;5.880;2023-03-05T15:41:59;47.67;;;26.95;;
77705;SDS011;66874;45.274;5.880;2023-03-05T15:44:25;50.28;;;27.25;;
77705;SDS011;66874;45.274;5.880;2023-03-05T15:46:50;52.60;;;25.98;;
77705;SDS011;66874;45.274;5.880;2023-03-05T15:49:16;48.42;;;27.00;;
77705;SDS011;66874;45.274;5.880;2023-03-05T15:51:42;48.78;;;27.85;;
77705;SDS011;66874;45.274;5.880;2023-03-05T15:54:07;49.13;;;28.73;;
77705;SDS011;66874;45.274;5.880;2023-03-05T15:56:33;48.25;;;27.15;;
77705;SDS011;66874;45.274;5.880;2023-03-05T15:58:58;49.33;;;27.70;;
77705;SDS011;66874;45.274;5.880;2023-03-05T16:01:25;47.50;;;26.38;;
77705;SDS011;66874;45.274;5.880;2023-03-05T16:03:50;41.85;;;25.15;;
77705;SDS011;66874;45.274;5.880;2023-03-05T16:06:16;44.58;;;25.60;;
77705;SDS011;66874;45.274;5.880;2023-03-05T16:08:46;39.35;;;23.73;;
77705;SDS011;66874;45.274;5.880;2023-03-05T16:11:13;42.35;;;23.38;;
77705;SDS011;66874;45.274;5.880;2023-03-05T16:13:38;49.55;;;24.23;;
77705;SDS011;66874;45.274;5.880;2023-03-05T16:16:05;43.53;;;23.27;;
77705;SDS011;66874;45.274;5.880;2023-03-05T16:18:32;41.63;;;22.95;;
77705;SDS011;66874;45.274;5.880;2023-03-05T16:21:00;44.53;;;22.30;;
77705;SDS011;66874;45.274;5.880;2023-03-05T16:23:26;41.55;;;22.25;;
77705;SDS011;66874;45.274;5.880;2023-03-05T16:25:52;43.45;;;23.23;;
77705;SDS011;66874;45.274;5.880;2023-03-05T16:28:17;41.05;;;22.45;;
77705;SDS011;66874;45.274;5.880;2023-03-05T16:30:42;40.72;;;22.02;;
77705;SDS011;66874;45.274;5.880;2023-03-05T16:33:08;48.08;;;23.38;;
77705;SDS011;66874;45.274;5.880;2023-03-05T16:35:34;41.90;;;22.30;;
77705;SDS011;66874;45.274;5.880;2023-03-05T16:37:59;40.78;;;22.00;;
77705;SDS011;66874;45.274;5.880;2023-03-05T16:40:25;45.30;;;21.58;;
77705;SDS011;66874;45.274;5.880;2023-03-05T16:42:51;44.28;;;22.60;;
77705;SDS011;66874;45.274;5.880;2023-03-05T16:45:16;54.45;;;22.15;;
77705;SDS011;66874;45.274;5.880;2023-03-05T16:47:42;43.85;;;21.13;;
77705;SDS011;66874;45.274;5.880;2023-03-05T16:50:08;44.28;;;21.75;;
77705;SDS011;66874;45.274;5.880;2023-03-05T16:52:34;42.92;;;21.98;;
77705;SDS011;66874;45.274;5.880;2023-03-05T16:55:00;46.05;;;21.75;;
77705;SDS011;66874;45.274;5.880;2023-03-05T16:57:25;44.67;;;20.52;;
77705;SDS011;66874;45.274;5.880;2023-03-05T16:59:53;43.08;;;20.40;;
77705;SDS011;66874;45.274;5.880;2023-03-05T17:02:19;42.83;;;20.70;;
77705;SDS011;66874;45.274;5.880;2023-03-05T17:04:45;47.25;;;22.48;;
77705;SDS011;66874;45.274;5.880;2023-03-05T17:07:10;40.90;;;20.98;;
77705;SDS011;66874;45.274;5.880;2023-03-05T17:09:36;39.97;;;20.15;;
77705;SDS011;66874;45.274;5.880;2023-03-05T17:12:01;46.45;;;20.40;;
77705;SDS011;66874;45.274;5.880;2023-03-05T17:14:27;41.20;;;19.98;;
77705;SDS011;66874;45.274;5.880;2023-03-05T17:16:52;46.63;;;21.45;;
77705;SDS011;66874;45.274;5.880;2023-03-05T17:19:18;39.45;;;20.10;;
77705;SDS011;66874;45.274;5.880;2023-03-05T17:21:43;46.22;;;21.23;;
77705;SDS011;66874;45.274;5.880;2023-03-05T17:24:09;42.83;;;20.67;;
77705;SDS011;66874;45.274;5.880;2023-03-05T17:26:35;49.17;;;21.48;;
77705;SDS011;66874;45.274;5.880;2023-03-05T17:29:02;45.83;;;21.02;;
77705;SDS011;66874;45.274;5.880;2023-03-05T17:31:28;39.85;;;20.33;;
77705;SDS011;66874;45.274;5.880;2023-03-05T17:33:53;48.92;;;20.83;;
77705;SDS011;66874;45.274;5.880;2023-03-05T17:36:20;44.63;;;20.95;;
77705;SDS011;66874;45.274;5.880;2023-03-05T17:38:46;47.45;;;21.20;;
77705;SDS011;66874;45.274;5.880;2023-03-05T17:41:13;62.08;;;27.35;;
77705;SDS011;66874;45.274;5.880;2023-03-05T17:43:41;45.38;;;21.40;;
77705;SDS011;66874;45.274;5.880;2023-03-05T17:48:33;63.03;;;25.25;;
77705;SDS011;66874;45.274;5.880;2023-03-05T17:50:59;63.80;;;28.20;;
77705;SDS011;66874;45.274;5.880;2023-03-05T17:53:25;67.78;;;26.05;;
77705;SDS011;66874;45.274;5.880;2023-03-05T17:55:52;57.47;;;25.25;;
77705;SDS011;66874;45.274;5.880;2023-03-05T17:58:18;78.90;;;30.25;;
77705;SDS011;66874;45.274;5.880;2023-03-05T18:00:43;61.50;;;25.85;;
77705;SDS011;66874;45.274;5.880;2023-03-05T18:03:09;43.33;;;21.35;;
77705;SDS011;66874;45.274;5.880;2023-03-05T18:05:35;46.85;;;22.88;;
77705;SDS011;66874;45.274;5.880;2023-03-05T18:08:00;45.97;;;21.77;;
77705;SDS011;66874;45.274;5.880;2023-03-05T18:10:27;67.10;;;27.83;;
77705;SDS011;66874;45.274;5.880;2023-03-05T18:12:54;65.45;;;29.08;;
77705;SDS011;66874;45.274;5.880;2023-03-05T18:15:20;55.80;;;26.67;;
77705;SDS011;66874;45.274;5.880;2023-03-05T18:17:47;58.60;;;28.58;;
77705;SDS011;66874;45.274;5.880;2023-03-05T18:20:45;58.70;;;27.20;;
77705;SDS011;66874;45.274;5.880;2023-03-05T18:23:05;51.30;;;25.77;;
77705;SDS011;66874;45.274;5.880;2023-03-05T18:25:31;45.88;;;22.77;;
77705;SDS011;66874;45.274;5.880;2023-03-05T18:27:58;50.30;;;21.73;;
77705;SDS011;66874;45.274;5.880;2023-03-05T18:30:27;51.67;;;23.08;;
77705;SDS011;66874;45.274;5.880;2023-03-05T18:32:54;53.22;;;23.23;;
77705;SDS011;66874;45.274;5.880;2023-03-05T18:35:20;48.80;;;24.38;;
77705;SDS011;66874;45.274;5.880;2023-03-05T18:37:45;54.45;;;26.38;;
77705;SDS011;66874;45.274;5.880;2023-03-05T18:40:12;60.25;;;25.30;;
77705;SDS011;66874;45.274;5.880;2023-03-05T18:42:45;63.75;;;28.85;;
77705;SDS011;66874;45.274;5.880;2023-03-05T18:45:12;58.38;;;26.38;;
77705;SDS011;66874;45.274;5.880;2023-03-05T18:47:39;59.05;;;27.55;;
77705;SDS011;66874;45.274;5.880;2023-03-05T18:50:08;59.03;;;27.48;;
77705;SDS011;66874;45.274;5.880;2023-03-05T18:52:36;55.97;;;26.52;;
77705;SDS011;66874;45.274;5.880;2023-03-05T18:55:01;61.20;;;27.58;;
77705;SDS011;66874;45.274;5.880;2023-03-05T18:57:27;72.10;;;32.25;;
77705;SDS011;66874;45.274;5.880;2023-03-05T18:59:52;72.63;;;33.78;;
77705;SDS011;66874;45.274;5.880;2023-03-05T19:02:18;68.63;;;31.48;;
77705;SDS011;66874;45.274;5.880;2023-03-05T19:04:43;66.65;;;31.25;;
77705;SDS011;66874;45.274;5.880;2023-03-05T19:07:09;72.05;;;32.85;;
77705;SDS011;66874;45.274;5.880;2023-03-05T19:09:35;83.97;;;37.33;;
77705;SDS011;66874;45.274;5.880;2023-03-05T19:12:16;75.20;;;33.97;;
77705;SDS011;66874;45.274;5.880;2023-03-05T19:14:42;63.03;;;28.40;;
77705;SDS011;66874;45.274;5.880;2023-03-05T19:17:07;60.83;;;29.63;;
77705;SDS011;66874;45.274;5.880;2023-03-05T19:19:33;60.20;;;29.70;;
77705;SDS011;66874;45.274;5.880;2023-03-05T19:21:58;59.60;;;27.77;;
77705;SDS011;66874;45.274;5.880;2023-03-05T19:24:25;63.00;;;28.98;;
77705;SDS011;66874;45.274;5.880;2023-03-05T19:26:52;68.00;;;30.75;;
77705;SDS011;66874;45.274;5.880;2023-03-05T19:29:23;80.70;;;35.35;;
77705;SDS011;66874;45.274;5.880;2023-03-05T19:31:51;156.35;;;61.15;;
77705;SDS011;66874;45.274;5.880;2023-03-05T19:34:18;70.53;;;31.08;;
77705;SDS011;66874;45.274;5.880;2023-03-05T19:36:44;58.30;;;25.90;;
77705;SDS011;66874;45.274;5.880;2023-03-05T19:39:10;57.67;;;25.63;;
77705;SDS011;66874;45.274;5.880;2023-03-05T19:41:36;49.70;;;23.50;;
77705;SDS011;66874;45.274;5.880;2023-03-05T19:44:02;55.38;;;26.15;;
77705;SDS011;66874;45.274;5.880;2023-03-05T19:46:28;66.25;;;30.88;;
77705;SDS011;66874;45.274;5.880;2023-03-05T19:48:53;62.63;;;31.08;;
77705;SDS011;66874;45.274;5.880;2023-03-05T19:51:20;72.22;;;36.20;;
77705;SDS011;66874;45.274;5.880;2023-03-05T19:53:48;76.00;;;34.90;;
77705;SDS011;66874;45.274;5.880;2023-03-05T19:56:14;68.55;;;32.17;;
77705;SDS011;66874;45.274;5.880;2023-03-05T19:58:40;77.40;;;37.60;;
77705;SDS011;66874;45.274;5.880;2023-03-05T20:03:37;57.28;;;27.33;;
77705;SDS011;66874;45.274;5.880;2023-03-05T20:06:03;56.72;;;26.52;;
77705;SDS011;66874;45.274;5.880;2023-03-05T20:08:29;65.18;;;27.35;;
77705;SDS011;66874;45.274;5.880;2023-03-05T20:10:55;54.10;;;26.80;;
77705;SDS011;66874;45.274;5.880;2023-03-05T20:13:20;61.80;;;27.02;;
77705;SDS011;66874;45.274;5.880;2023-03-05T20:15:47;56.47;;;26.67;;
77705;SDS011;66874;45.274;5.880;2023-03-05T20:18:13;56.00;;;24.95;;
77705;SDS011;66874;45.274;5.880;2023-03-05T20:20:38;55.92;;;26.38;;
77705;SDS011;66874;45.274;5.880;2023-03-05T20:23:04;58.45;;;26.13;;
77705;SDS011;66874;45.274;5.880;2023-03-05T20:25:29;71.80;;;31.45;;
77705;SDS011;66874;45.274;5.880;2023-03-05T20:27:54;85.18;;;37.80;;
77705;SDS011;66874;45.274;5.880;2023-03-05T20:30:20;88.97;;;39.42;;
77705;SDS011;66874;45.274;5.880;2023-03-05T20:32:45;103.68;;;44.15;;
77705;SDS011;66874;45.274;5.880;2023-03-05T20:35:12;119.30;;;49.85;;
77705;SDS011;66874;45.274;5.880;2023-03-05T20:37:39;85.78;;;37.40;;
77705;SDS011;66874;45.274;5.880;2023-03-05T20:40:13;84.47;;;35.28;;
77705;SDS011;66874;45.274;5.880;2023-03-05T20:42:39;72.93;;;32.05;;
77705;SDS011;66874;45.274;5.880;2023-03-05T20:45:04;80.30;;;32.40;;
77705;SDS011;66874;45.274;5.880;2023-03-05T20:47:30;88.10;;;34.63;;
77705;SDS011;66874;45.274;5.880;2023-03-05T20:50:05;82.85;;;32.67;;
77705;SDS011;66874;45.274;5.880;2023-03-05T20:52:34;65.03;;;29.63;;
77705;SDS011;66874;45.274;5.880;2023-03-05T20:55:00;66.32;;;29.25;;
77705;SDS011;66874;45.274;5.880;2023-03-05T20:57:27;69.15;;;30.02;;
77705;SDS011;66874;45.274;5.880;2023-03-05T20:59:53;69.80;;;28.95;;
77705;SDS011;66874;45.274;5.880;2023-03-05T21:02:18;60.28;;;26.00;;
77705;SDS011;66874;45.274;5.880;2023-03-05T21:04:44;63.55;;;27.80;;
77705;SDS011;66874;45.274;5.880;2023-03-05T21:07:10;57.13;;;28.60;;
77705;SDS011;66874;45.274;5.880;2023-03-05T21:09:35;60.65;;;27.00;;
77705;SDS011;66874;45.274;5.880;2023-03-05T21:12:00;64.28;;;28.30;;
77705;SDS011;66874;45.274;5.880;2023-03-05T21:14:26;57.85;;;27.80;;
77705;SDS011;66874;45.274;5.880;2023-03-05T21:16:51;63.53;;;28.80;;
77705;SDS011;66874;45.274;5.880;2023-03-05T21:19:17;64.22;;;28.15;;
77705;SDS011;66874;45.274;5.880;2023-03-05T21:21:42;68.35;;;26.42;;
77705;SDS011;66874;45.274;5.880;2023-03-05T21:24:09;67.78;;;27.40;;
77705;SDS011;66874;45.274;5.880;2023-03-05T21:26:35;59.63;;;27.27;;
77705;SDS011;66874;45.274;5.880;2023-03-05T21:29:01;70.40;;;30.35;;
77705;SDS011;66874;45.274;5.880;2023-03-05T21:31:29;66.00;;;29.45;;
77705;SDS011;66874;45.274;5.880;2023-03-05T21:33:56;66.85;;;30.00;;
77705;SDS011;66874;45.274;5.880;2023-03-05T21:36:22;59.80;;;28.00;;
77705;SDS011;66874;45.274;5.880;2023-03-05T21:38:47;63.45;;;28.05;;
77705;SDS011;66874;45.274;5.880;2023-03-05T21:41:13;64.60;;;27.80;;
77705;SDS011;66874;45.274;5.880;2023-03-05T21:43:39;65.70;;;26.27;;
77705;SDS011;66874;45.274;5.880;2023-03-05T21:46:06;61.30;;;26.60;;
77705;SDS011;66874;45.274;5.880;2023-03-05T21:48:31;68.47;;;27.30;;
77705;SDS011;66874;45.274;5.880;2023-03-05T21:50:57;64.00;;;28.73;;
77705;SDS011;66874;45.274;5.880;2023-03-05T21:53:23;67.43;;;25.58;;
77705;SDS011;66874;45.274;5.880;2023-03-05T21:55:49;60.10;;;28.08;;